Time;durP1;ratioP1;P1;durP2;ratioP2;P2;SDS_P1;SDS_P2;PMS_P1;PMS_P2;Temp;Humidity;BMP_temperature;BMP_pressure;BME280_temperature;BME280_humidity;BME280_pressure;Samples;Min_cycle;Max_cycle;Signal;HPM_P1;HPM_P2
2022/12/21 00:02:03;;;;;;;31.92;15.27;;;;;;;6.08;100.00;100864.56;4973337;28;20027;-61
2022/12/21 00:04:29;;;;;;;37.35;15.25;;;;;;;5.89;100.00;100859.63;4971907;28;20036;-60
2022/12/21 00:06:54;;;;;;;32.75;15.57;;;;;;;5.78;100.00;100859.72;4973442;28;20054;-60
2022/12/21 00:09:20;;;;;;;32.20;14.68;;;;;;;6.12;100.00;100938.56;4971914;28;20070;-60
2022/12/21 00:11:45;;;;;;;31.27;14.93;;;;;;;6.00;100.00;100938.72;4973070;28;20137;-60
2022/12/21 00:14:10;;;;;;;33.85;15.32;;;;;;;5.85;100.00;100928.41;4973215;28;20043;-60
2022/12/21 00:16:38;;;;;;;30.10;15.18;;;;;;;5.28;100.00;100849.00;4973041;28;20039;-60
2022/12/21 00:19:04;;;;;;;35.90;16.05;;;;;;;5.51;100.00;100910.53;4971707;28;20030;-60
2022/12/21 00:21:35;;;;;;;35.35;16.00;;;;;;;5.33;100.00;100874.19;4972956;28;20053;-60
2022/12/21 00:24:00;;;;;;;;;;;;;;;5.68;100.00;100933.84;4973389;28;20032;-60
2022/12/21 00:26:28;;;;;;;36.90;16.15;;;;;;;5.67;100.00;100913.81;4973014;28;19922;-60
2022/12/21 00:28:54;;;;;;;40.17;16.77;;;;;;;5.45;100.00;100876.66;4972792;28;20057;-60
2022/12/21 00:31:23;;;;;;;33.90;15.05;;;;;;;5.55;100.00;100886.09;4974128;28;20035;-60
2022/12/21 00:33:49;;;;;;;28.70;15.27;;;;;;;5.66;100.00;100906.88;4976733;28;20061;-60
2022/12/21 00:36:16;;;;;;;41.40;17.02;;;;;;;5.29;100.00;100838.53;4975333;28;20479;-60
2022/12/21 00:38:42;;;;;;;36.20;16.17;;;;;;;5.39;100.00;100854.97;4975260;28;20047;-62
2022/12/21 00:41:10;;;;;;;34.38;16.77;;;;;;;5.26;100.00;100835.09;4976762;28;20066;-60
2022/12/21 00:43:38;;;;;;;39.22;16.05;;;;;;;5.65;100.00;100907.75;4976489;28;20038;-60
2022/12/21 00:46:04;;;;;;;32.13;16.30;;;;;;;5.68;100.00;100921.66;4976437;28;20501;-59
2022/12/21 00:48:31;;;;;;;36.35;16.48;;;;;;;5.45;100.00;100870.56;4975272;28;20042;-59
2022/12/21 00:51:08;;;;;;;34.88;17.42;;;;;;;5.24;100.00;100836.84;4975254;28;20041;-59
2022/12/21 00:53:33;;;;;;;36.35;16.25;;;;;;;5.60;100.00;100912.19;4976231;28;20027;-60
2022/12/21 00:56:00;;;;;;;35.38;17.30;;;;;;;5.58;100.00;100906.09;4959156;28;20049;-60
2022/12/21 00:58:27;;;;;;;35.90;15.68;;;;;;;5.42;100.00;100894.97;4976091;28;20121;-60
2022/12/21 01:00:54;;;;;;;33.88;16.13;;;;;;;5.03;100.00;100837.94;4976322;28;20035;-59
2022/12/21 01:03:19;;;;;;;33.95;16.33;;;;;;;5.29;100.00;100897.69;4976065;28;20030;-60
2022/12/21 01:05:46;;;;;;;35.80;16.65;;;;;;;4.91;100.00;100849.34;4974991;28;20086;-59
2022/12/21 01:08:12;;;;;;;38.15;16.55;;;;;;;5.19;100.00;100909.13;4975961;28;20038;-60
2022/12/21 01:10:37;;;;;;;35.83;16.40;;;;;;;4.68;100.00;100826.97;4975988;28;20034;-59
2022/12/21 01:13:02;;;;;;;29.40;15.30;;;;;;;4.98;100.00;100900.59;4974631;28;20122;-59
2022/12/21 01:15:28;;;;;;;32.67;16.70;;;;;;;4.47;100.00;100831.47;4974452;28;20122;-59
2022/12/21 01:17:53;;;;;;;43.97;17.60;;;;;;;4.80;100.00;100912.91;4975735;28;20139;-59
2022/12/21 01:20:18;;;;;;;41.05;18.33;;;;;;;4.70;100.00;100900.84;4975971;28;20363;-59
2022/12/21 01:22:44;;;;;;;40.97;17.40;;;;;;;4.64;100.00;100898.28;4975781;28;20043;-60
2022/12/21 01:25:09;;;;;;;35.05;17.38;;;;;;;4.65;100.00;100916.50;4975532;28;20035;-61
2022/12/21 01:27:34;;;;;;;40.97;18.33;;;;;;;4.62;100.00;100905.22;4975542;28;20039;-59
2022/12/21 01:30:00;;;;;;;46.30;18.42;;;;;;;4.15;100.00;100836.06;4974313;28;20042;-59
2022/12/21 01:32:25;;;;;;;52.70;20.08;;;;;;;4.57;100.00;100918.31;4975761;28;20217;-60
2022/12/21 01:34:50;;;;;;;43.92;19.90;;;;;;;4.59;100.00;100919.16;4975930;28;20075;-60
2022/12/21 01:37:16;;;;;;;43.97;19.90;;;;;;;4.21;100.00;100859.47;4974301;28;20066;-60
2022/12/21 01:39:41;;;;;;;45.60;18.73;;;;;;;4.17;100.00;100872.53;4975276;28;20047;-60
2022/12/21 01:42:11;;;;;;;47.00;20.05;;;;;;;4.09;100.00;100862.13;4972878;28;20061;-60
2022/12/21 01:44:59;;;;;;;47.38;22.05;;;;;;;4.42;100.00;100928.81;4974080;28;20115;-60
2022/12/21 01:47:48;;;;;;;45.92;21.02;;;;;;;4.42;100.00;100941.84;4974358;28;20497;-60
2022/12/21 01:50:26;;;;;;;53.05;21.30;;;;;;;3.92;100.00;100867.44;4967092;28;20043;-60
2022/12/21 01:52:52;;;;;;;61.60;24.15;;;;;;;4.33;100.00;100934.09;4974136;28;20031;-60
2022/12/21 01:55:17;;;;;;;46.75;23.33;;;;;;;4.39;100.00;100942.75;4973041;28;20493;-60
2022/12/21 01:57:42;;;;;;;55.08;24.25;;;;;;;3.95;100.00;100863.97;4974159;28;20030;-60
2022/12/21 02:00:09;;;;;;;64.05;25.13;;;;;;;3.95;100.00;100870.03;4973976;28;20034;-59
2022/12/21 02:02:44;;;;;;;62.72;26.10;;;;;;;4.03;100.00;100872.59;4973946;28;20041;-61
2022/12/21 02:05:34;;;;;;;68.00;25.50;;;;;;;4.48;100.00;100937.47;4972738;28;20367;-59
2022/12/21 02:08:03;;;;;;;64.28;26.67;;;;;;;4.48;100.00;100944.44;4972686;28;20438;-61
2022/12/21 02:10:28;;;;;;;82.35;27.95;;;;;;;4.09;100.00;100869.94;4973853;28;20076;-59
2022/12/21 02:13:01;;;;;;;78.43;32.60;;;;;;;4.45;100.00;100928.81;4973734;28;20063;-60
2022/12/21 02:15:45;;;;;;;74.03;29.33;;;;;;;4.51;100.00;100936.59;4973805;28;20448;-60
2022/12/21 02:18:19;;;;;;;83.68;32.70;;;;;;;4.50;100.00;100935.72;4973886;28;20039;-60
2022/12/21 02:21:12;;;;;;;96.05;33.58;;;;;;;4.52;100.00;100939.19;4974120;28;20035;-60
2022/12/21 02:23:56;;;;;;;87.80;33.30;;;;;;;4.52;100.00;100931.34;4972441;28;20038;-60
2022/12/21 02:26:36;;;;;;;114.80;35.60;;;;;;;4.58;100.00;100940.03;4973742;28;20154;-60
2022/12/21 02:29:34;;;;;;;122.77;38.23;;;;;;;4.67;100.00;100921.72;4973468;28;20026;-61
2022/12/21 02:32:18;;;;;;;126.78;38.90;;;;;;;4.66;100.00;100931.28;4973674;28;20441;-60
2022/12/21 02:34:57;;;;;;;86.10;33.40;;;;;;;4.48;100.00;100894.91;4972442;28;20034;-60
2022/12/21 02:37:29;;;;;;;90.07;34.13;;;;;;;4.49;100.00;100896.66;4973595;28;20039;-59
2022/12/21 02:39:58;;;;;;;91.00;34.10;;;;;;;4.65;100.00;100921.72;4933086;28;1135597;-59
2022/12/21 02:45:40;;;;;;;94.63;32.00;;;;;;;4.65;100.00;100924.34;4972717;28;20041;-60
2022/12/21 02:48:14;;;;;;;90.32;32.83;;;;;;;4.63;100.00;100906.97;4974220;28;20035;-61
2022/12/21 02:50:43;;;;;;;91.00;32.45;;;;;;;4.63;100.00;100893.94;4956333;28;20039;-59
2022/12/21 02:53:14;;;;;;;100.03;35.75;;;;;;;4.83;100.00;100926.81;4972710;28;20176;-60
2022/12/21 02:55:40;;;;;;;;;;;;;;;4.91;100.00;100930.22;4972848;28;20385;-60
2022/12/21 02:58:19;;;;;;;101.03;33.20;;;;;;;5.00;100.00;100939.72;4972867;28;19914;-61
2022/12/21 03:00:55;;;;;;;90.85;32.03;;;;;;;5.04;100.00;100931.00;4973979;28;20031;-60
2022/12/21 03:03:48;;;;;;;101.20;31.70;;;;;;;5.04;100.00;100944.03;4956623;28;20057;-60
2022/12/21 03:06:50;;;;;;;101.60;34.40;;;;;;;5.07;100.00;100920.53;4973695;28;20038;-60
2022/12/21 03:09:50;;;;;;;105.20;34.40;;;;;;;5.15;100.00;100921.31;4973684;28;20386;-61
2022/12/21 03:12:18;;;;;;;90.63;33.35;;;;;;;5.17;100.00;100914.34;4973736;28;20045;-60
2022/12/21 03:14:52;;;;;;;100.47;34.05;;;;;;;5.19;100.00;100928.25;4973577;28;20038;-60
2022/12/21 03:17:30;;;;;;;87.68;32.75;;;;;;;5.18;100.00;100925.63;4973724;28;20034;-60
2022/12/21 03:20:19;;;;;;;96.20;33.40;;;;;;;5.14;100.00;100918.75;4972460;28;20050;-61
2022/12/21 03:22:59;;;;;;;95.38;34.03;;;;;;;4.66;100.00;100842.63;4973805;28;20031;-60
2022/12/21 03:25:41;;;;;;;102.88;32.08;;;;;;;4.50;100.00;100814.94;4972220;28;20227;-60
2022/12/21 03:28:11;;;;;;;93.55;35.03;;;;;;;4.99;100.00;100920.56;4973520;28;20062;-59
2022/12/21 03:30:42;;;;;;;100.28;32.30;;;;;;;4.87;100.00;100888.53;4972123;28;20109;-61
2022/12/21 03:33:14;;;;;;;121.78;35.55;;;;;;;4.50;100.00;100827.97;4972397;28;20031;-60
2022/12/21 03:35:45;;;;;;;94.82;33.45;;;;;;;4.62;100.00;100842.66;4973462;28;20027;-59
2022/12/21 03:38:24;;;;;;;111.85;35.40;;;;;;;4.47;100.00;100813.25;4972289;28;20038;-60
2022/12/21 03:40:53;;;;;;;86.05;31.88;;;;;;;4.59;100.00;100832.25;4972175;28;20055;-60
2022/12/21 03:43:30;;;;;;;93.45;35.33;;;;;;;4.86;100.00;100879.84;4973081;28;20078;-60
2022/12/21 03:46:02;;;;;;;96.75;35.35;;;;;;;4.45;100.00;100794.16;4972135;28;20030;-61
2022/12/21 03:48:37;;;;;;;107.55;35.80;;;;;;;4.99;100.00;100891.88;4973322;28;20042;-61
2022/12/21 03:51:26;;;;;;;96.82;34.40;;;;;;;5.00;100.00;100887.53;4972115;28;20035;-60
2022/12/21 03:54:10;;;;;;;120.95;37.08;;;;;;;5.00;100.00;100885.78;4953360;28;20051;-60
2022/12/21 03:56:36;;;;;;;100.78;34.17;;;;;;;4.98;100.00;100876.25;4971997;28;20462;-60
2022/12/21 03:59:02;;;;;;;105.13;36.28;;;;;;;4.54;100.00;100801.03;4972035;28;20039;-60
2022/12/21 04:01:46;;;;;;;108.97;37.40;;;;;;;4.97;100.00;100884.94;4973232;28;20441;-60
2022/12/21 04:04:26;;;;;;;87.40;33.85;;;;;;;4.82;100.00;100874.66;4973081;28;20081;-60
2022/12/21 04:06:52;;;;;;;91.07;35.75;;;;;;;4.97;100.00;100896.25;4974140;28;20035;-60
2022/12/21 04:09:18;;;;;;;108.03;35.63;;;;;;;4.52;100.00;100805.41;4975611;28;20109;-61
2022/12/21 04:14:27;;;;;;;110.28;36.10;;;;;;;4.88;100.00;100880.69;4976048;28;20541;-60
2022/12/21 04:16:52;;;;;;;109.97;35.47;;;;;;;4.88;100.00;100882.41;4977103;28;20043;-60
2022/12/21 04:22:02;;;;;;;132.65;38.10;;;;;;;4.89;100.00;100873.72;4976907;28;20089;-60
2022/12/21 04:29:55;;;;;;;123.55;37.20;;;;;;;4.65;100.00;100807.00;4976354;28;20190;-59
2022/12/21 04:32:20;;;;;;;135.02;40.30;;;;;;;4.68;100.00;100813.94;4976726;28;20052;-62
2022/12/21 04:34:46;;;;;;;138.05;38.90;;;;;;;4.24;100.00;100742.19;4975467;28;20126;-62
2022/12/21 04:39:55;;;;;;;145.60;38.08;;;;;;;4.67;100.00;100846.13;4975843;28;20050;-60
2022/12/21 04:42:20;;;;;;;136.55;38.10;;;;;;;4.77;100.00;100885.13;4975906;28;20051;-59
2022/12/21 04:44:45;;;;;;;101.78;34.70;;;;;;;4.33;100.00;100812.47;4976199;28;20039;-61
2022/12/21 04:47:11;;;;;;;147.77;36.50;;;;;;;4.66;100.00;100886.09;4976403;28;20027;-60
2022/12/21 04:49:37;;;;;;;119.50;38.97;;;;;;;4.22;100.00;100803.03;4976289;28;20410;-60
2022/12/21 04:52:02;;;;;;;149.65;41.42;;;;;;;4.85;100.00;100885.94;4976280;28;20034;-60
2022/12/21 04:54:27;;;;;;;126.10;40.17;;;;;;;4.44;100.00;100805.44;4976206;28;20034;-61
2022/12/21 04:56:53;;;;;;;125.28;40.13;;;;;;;5.04;100.00;100902.28;4975995;28;20034;-62
2022/12/21 04:59:18;;;;;;;152.48;42.80;;;;;;;4.80;100.00;100835.56;4976529;28;20046;-61
2022/12/21 05:01:43;;;;;;;160.70;44.05;;;;;;;4.91;100.00;100838.94;4976189;28;20133;-61
2022/12/21 05:04:10;;;;;;;181.07;44.85;;;;;;;5.31;100.00;100880.28;4975891;28;20035;-60
2022/12/21 05:06:35;;;;;;;138.25;41.50;;;;;;;5.35;100.00;100868.91;4974796;28;20034;-60
2022/12/21 05:09:01;;;;;;;203.02;47.92;;;;;;;5.08;100.00;100813.53;4975852;28;20046;-60
2022/12/21 05:11:26;;;;;;;271.13;51.35;;;;;;;5.10;100.00;100796.13;4976225;28;20039;-60
2022/12/21 05:13:51;;;;;;;348.38;54.33;;;;;;;5.56;100.00;100866.94;4976025;28;20070;-61
2022/12/21 05:16:19;;;;;;;372.35;58.25;;;;;;;5.11;100.00;100783.94;4976000;28;20055;-61
2022/12/21 05:18:45;;;;;;;371.70;56.40;;;;;;;5.49;100.00;100861.78;4975274;28;20097;-60
2022/12/21 05:21:11;;;;;;;266.88;50.83;;;;;;;5.18;100.00;100808.22;4975550;28;20035;-61
2022/12/21 05:23:37;;;;;;;324.95;56.28;;;;;;;5.14;100.00;100802.16;4975852;28;20066;-61
2022/12/21 05:26:03;;;;;;;220.55;47.15;;;;;;;5.54;100.00;100868.72;4974769;28;20031;-60
2022/12/21 05:28:29;;;;;;;197.95;46.45;;;;;;;5.58;100.00;100867.78;4974440;28;20489;-61
2022/12/21 05:30:54;;;;;;;278.13;51.38;;;;;;;5.46;100.00;100865.31;4975582;28;20031;-61
2022/12/21 05:33:19;;;;;;;301.13;57.50;;;;;;;5.17;100.00;100814.34;4975378;28;20035;-61
2022/12/21 05:35:45;;;;;;;501.67;69.45;;;;;;;5.37;100.00;100854.13;4975417;28;20042;-61
2022/12/21 05:38:10;;;;;;;212.77;47.97;;;;;;;5.49;100.00;100882.69;4975120;28;20086;-60
2022/12/21 05:40:36;;;;;;;359.25;60.13;;;;;;;5.50;100.00;100893.13;4974130;28;20770;-61
2022/12/21 05:43:02;;;;;;;222.05;47.83;;;;;;;5.53;100.00;100889.63;4974446;28;20121;-60
2022/12/21 05:45:27;;;;;;;314.05;59.05;;;;;;;5.39;100.00;100853.22;4975136;28;20474;-61
2022/12/21 05:47:54;;;;;;;427.50;71.10;;;;;;;5.06;100.00;100799.66;4975110;28;20046;-61
2022/12/21 05:50:19;;;;;;;223.73;50.92;;;;;;;4.99;100.00;100786.69;4975258;28;20066;-61
2022/12/21 05:52:44;;;;;;;321.17;60.90;;;;;;;5.48;100.00;100870.53;4975290;28;20525;-61
2022/12/21 05:55:10;;;;;;;370.02;68.07;;;;;;;5.20;100.00;100822.97;4975318;28;20430;-61
2022/12/21 05:57:35;;;;;;;280.40;56.92;;;;;;;5.31;100.00;100839.38;4973705;28;20406;-62
2022/12/21 06:00:01;;;;;;;382.60;69.90;;;;;;;5.35;100.00;100824.56;4975126;28;20030;-61
2022/12/21 06:02:27;;;;;;;426.08;69.93;;;;;;;5.48;100.00;100852.25;4973771;28;20038;-61
2022/12/21 06:04:52;;;;;;;306.00;59.95;;;;;;;5.45;100.00;100855.78;4974863;28;20031;-61
2022/12/21 06:07:18;;;;;;;527.55;84.72;;;;;;;5.10;100.00;100803.09;4974892;28;20026;-61
2022/12/21 06:09:43;;;;;;;292.02;60.58;;;;;;;5.45;100.00;100861.00;4974846;28;20453;-61
2022/12/21 06:12:08;;;;;;;337.10;67.13;;;;;;;5.44;100.00;100861.00;4975003;28;20070;-61
2022/12/21 06:14:34;;;;;;;416.27;73.13;;;;;;;5.01;100.00;100792.75;4974787;28;20034;-61
2022/12/21 06:16:59;;;;;;;381.05;69.85;;;;;;;5.29;100.00;100842.88;4975007;28;20435;-61
2022/12/21 06:19:24;;;;;;;216.25;56.50;;;;;;;5.42;100.00;100857.53;4974816;28;20122;-61
2022/12/21 06:21:53;;;;;;;227.05;55.67;;;;;;;5.45;100.00;100857.50;4975382;28;20039;-61
2022/12/21 06:24:21;;;;;;;271.05;62.10;;;;;;;5.44;100.00;100864.47;4976518;28;20042;-61
2022/12/21 06:26:51;;;;;;;454.80;80.68;;;;;;;5.46;100.00;100852.25;4976426;28;20031;-61
2022/12/21 06:29:23;;;;;;;410.17;77.50;;;;;;;5.47;100.00;100854.00;4974704;28;20062;-61
2022/12/21 06:31:50;;;;;;;353.77;69.68;;;;;;;5.49;100.00;100853.97;4974026;28;20039;-61
2022/12/21 06:34:18;;;;;;;278.88;65.22;;;;;;;5.49;100.00;100853.97;4973514;28;20049;-60
2022/12/21 06:36:45;;;;;;;231.27;61.53;;;;;;;5.50;100.00;100853.09;4974034;28;20035;-60
2022/12/21 06:39:10;;;;;;;337.02;71.03;;;;;;;5.50;100.00;100855.72;4974700;28;20121;-60
2022/12/21 06:41:36;;;;;;;270.55;65.85;;;;;;;5.48;100.00;100860.97;4968513;28;20070;-60
2022/12/21 06:44:02;;;;;;;240.52;63.38;;;;;;;5.57;100.00;100862.59;4974372;28;20053;-61
2022/12/21 06:46:28;;;;;;;235.18;60.60;;;;;;;5.57;100.00;100867.81;4974225;28;20138;-61
2022/12/21 06:48:53;;;;;;;185.65;55.22;;;;;;;5.56;100.00;100860.88;4973067;28;20047;-60
2022/12/21 06:51:21;;;;;;;218.63;60.55;;;;;;;5.70;100.00;100877.22;4973414;28;20035;-60
2022/12/21 06:53:48;;;;;;;201.98;59.10;;;;;;;5.73;100.00;100890.25;4974091;28;20089;-60
2022/12/21 06:56:19;;;;;;;177.52;53.72;;;;;;;5.80;100.00;100889.31;4974246;28;20057;-62
2022/12/21 06:58:49;;;;;;;161.55;53.53;;;;;;;5.79;100.00;100892.78;4972456;28;20036;-61
2022/12/21 07:01:17;;;;;;;153.02;50.83;;;;;;;5.74;100.00;100888.50;4972002;28;20112;-60
2022/12/21 07:03:43;;;;;;;152.07;52.13;;;;;;;5.67;100.00;100887.69;4974265;28;20023;-61
2022/12/21 07:06:10;;;;;;;140.63;51.30;;;;;;;5.26;100.00;100819.44;4973567;28;20027;-60
2022/12/21 07:08:36;;;;;;;155.38;54.13;;;;;;;5.73;100.00;100889.38;4972589;28;20042;-61
2022/12/21 07:11:04;;;;;;;129.35;50.90;;;;;;;5.80;100.00;100901.50;4972897;28;20101;-61
2022/12/21 07:13:29;;;;;;;115.57;50.33;;;;;;;5.85;100.00;100904.91;4974694;28;20482;-61
2022/12/21 07:15:56;;;;;;;122.13;51.63;;;;;;;5.80;100.00;100902.38;4972730;28;20124;-60
2022/12/21 07:18:22;;;;;;;114.05;50.08;;;;;;;5.75;100.00;100893.69;4972975;28;20034;-61
2022/12/21 07:20:47;;;;;;;140.63;51.58;;;;;;;5.47;100.00;100851.38;4970145;28;20042;-61
2022/12/21 07:23:13;;;;;;;126.40;51.85;;;;;;;5.35;100.00;100837.59;4973666;28;20031;-61
2022/12/21 07:25:38;;;;;;;105.70;48.35;;;;;;;5.31;100.00;100841.16;4973397;28;20046;-60
2022/12/21 07:28:03;;;;;;;110.60;49.15;;;;;;;5.60;100.00;100891.28;4971984;28;20030;-60
2022/12/21 07:30:29;;;;;;;118.43;50.88;;;;;;;5.48;100.00;100884.47;4973771;28;20027;-60
2022/12/21 07:32:54;;;;;;;117.05;49.80;;;;;;;4.82;100.00;100794.66;4973410;28;20434;-61
2022/12/21 07:35:21;;;;;;;135.68;51.72;;;;;;;5.21;100.00;100871.69;4972210;28;20066;-60
2022/12/21 07:37:47;;;;;;;132.63;50.83;;;;;;;5.09;100.00;100893.53;4972085;28;20037;-61
2022/12/21 07:40:13;;;;;;;116.40;50.50;;;;;;;4.75;100.00;100841.69;4972131;28;20042;-61
2022/12/21 07:42:41;;;;;;;136.27;53.28;;;;;;;4.53;100.00;100804.50;4973142;28;20079;-61
2022/12/21 07:45:07;;;;;;;112.05;48.97;;;;;;;4.92;100.00;100882.41;4970792;28;20045;-61
2022/12/21 07:47:33;;;;;;;107.45;49.25;;;;;;;4.55;100.00;100811.44;4971518;28;20027;-60
2022/12/21 07:49:58;;;;;;;107.43;48.90;;;;;;;4.80;100.00;100848.59;4972607;28;20039;-61
2022/12/21 07:52:24;;;;;;;115.30;50.35;;;;;;;4.88;100.00;100869.38;4972582;28;20062;-61
2022/12/21 07:54:49;;;;;;;105.00;49.10;;;;;;;4.58;100.00;100807.09;4972694;28;20039;-61
2022/12/21 07:57:14;;;;;;;104.72;48.38;;;;;;;5.09;100.00;100883.09;4972719;28;20171;-61
2022/12/21 07:59:39;;;;;;;124.07;50.47;;;;;;;5.07;100.00;100879.66;4972711;28;20054;-61
2022/12/21 08:02:05;;;;;;;127.53;51.83;;;;;;;4.66;100.00;100819.19;4972811;28;20046;-61
2022/12/21 08:04:30;;;;;;;107.10;49.78;;;;;;;4.63;100.00;100827.03;4972506;28;20038;-60
2022/12/21 08:06:55;;;;;;;123.38;52.38;;;;;;;4.89;100.00;100879.81;4972957;28;20031;-60
2022/12/21 08:09:21;;;;;;;115.85;50.65;;;;;;;4.96;100.00;100902.34;4972433;28;20398;-61
2022/12/21 08:11:46;;;;;;;118.45;53.45;;;;;;;4.96;100.00;100898.91;4972401;28;20039;-61
2022/12/21 08:14:11;;;;;;;114.50;51.08;;;;;;;4.58;100.00;100825.34;4972968;28;20067;-61
2022/12/21 08:16:37;;;;;;;120.40;52.03;;;;;;;4.99;100.00;100896.25;4972750;28;20055;-61
2022/12/21 08:19:02;;;;;;;122.03;56.03;;;;;;;4.62;100.00;100834.84;4972617;28;20038;-61
2022/12/21 08:21:27;;;;;;;133.60;57.95;;;;;;;5.03;100.00;100905.78;4972809;28;20528;-61
2022/12/21 08:23:53;;;;;;;131.90;56.25;;;;;;;5.03;100.00;100893.59;4971479;28;20467;-61
2022/12/21 08:26:18;;;;;;;120.15;53.85;;;;;;;4.87;100.00;100867.66;4971450;28;20102;-61
2022/12/21 08:28:44;;;;;;;122.57;57.55;;;;;;;5.09;100.00;100908.31;4972597;28;20034;-61
2022/12/21 08:31:13;;;;;;;129.60;57.38;;;;;;;5.15;100.00;100894.34;4970758;28;20041;-61
2022/12/21 08:33:41;;;;;;;121.05;59.13;;;;;;;5.02;100.00;100863.16;4972777;28;20536;-61
2022/12/21 08:36:11;;;;;;;133.32;58.97;;;;;;;5.26;100.00;100895.09;4971653;28;20033;-61
2022/12/21 08:38:36;;;;;;;126.18;57.72;;;;;;;5.31;100.00;100898.56;4972247;28;20105;-62
2022/12/21 08:41:03;;;;;;;124.43;57.67;;;;;;;5.02;100.00;100831.00;4972703;28;20038;-61
2022/12/21 08:43:28;;;;;;;116.90;57.70;;;;;;;5.49;100.00;100888.78;4971853;28;20509;-61
2022/12/21 08:45:54;;;;;;;132.65;59.33;;;;;;;5.64;100.00;100896.44;4971618;28;20034;-61
2022/12/21 08:48:19;;;;;;;115.20;55.20;;;;;;;5.74;100.00;100905.03;4972005;28;20466;-62
2022/12/21 08:50:51;;;;;;;115.90;56.53;;;;;;;5.60;100.00;100857.34;4971294;28;20035;-62
2022/12/21 08:53:16;;;;;;;131.82;56.95;;;;;;;5.84;100.00;100880.53;4975166;28;20035;-60
2022/12/21 08:55:42;;;;;;;110.18;53.72;;;;;;;5.44;100.00;100808.78;4976128;28;20035;-61
2022/12/21 08:58:07;;;;;;;110.28;51.33;;;;;;;5.84;100.00;100882.31;4976133;28;20045;-61
2022/12/21 09:00:32;;;;;;;106.40;50.72;;;;;;;5.92;100.00;100883.97;4976446;28;20041;-61
2022/12/21 09:02:58;;;;;;;91.38;46.58;;;;;;;5.53;100.00;100826.94;4976198;28;20027;-61
2022/12/21 09:05:23;;;;;;;89.13;44.80;;;;;;;5.90;100.00;100893.56;4975969;28;20130;-60
2022/12/21 09:07:48;;;;;;;91.93;45.97;;;;;;;5.98;100.00;100890.84;4975718;28;20405;-61
2022/12/21 09:10:14;;;;;;;82.15;42.15;;;;;;;5.77;100.00;100849.28;4974228;28;20042;-61
2022/12/21 09:12:39;;;;;;;76.65;38.33;;;;;;;6.00;100.00;100876.88;4972533;28;20109;-61
2022/12/21 09:15:05;;;;;;;82.85;38.95;;;;;;;6.02;100.00;100887.31;4973229;28;20037;-61
2022/12/21 09:17:31;;;;;;;66.18;36.05;;;;;;;6.00;100.00;100892.56;4973560;28;20430;-61
2022/12/21 09:19:56;;;;;;;69.18;35.53;;;;;;;5.95;100.00;100881.31;4974492;28;20066;-61
2022/12/21 09:25:10;;;;;;;61.70;32.67;;;;;;;5.93;100.00;100879.56;4992136;28;20066;-61
2022/12/21 09:27:36;;;;;;;67.63;33.60;;;;;;;5.55;100.00;100810.38;4994108;28;20375;-60
2022/12/21 09:30:01;;;;;;;60.80;32.25;;;;;;;5.85;100.00;100850.06;4994015;28;20524;-61
2022/12/21 09:32:26;;;;;;;59.85;28.60;;;;;;;5.96;100.00;100861.25;4992650;28;20034;-60
2022/12/21 09:34:52;;;;;;;46.95;26.08;;;;;;;5.62;100.00;100811.19;4993829;28;20121;-60
2022/12/21 09:37:18;;;;;;;51.28;22.35;;;;;;;5.62;100.00;100800.72;4992589;28;20478;-63
2022/12/21 09:39:44;;;;;;;46.55;22.67;;;;;;;6.04;100.00;100849.81;4992901;28;20114;-62
2022/12/21 09:42:34;;;;;;;54.95;22.83;;;;;;;6.13;100.00;100875.81;4992617;28;20030;-60
2022/12/21 09:45:26;;;;;;;50.47;22.00;;;;;;;5.75;100.00;100804.06;4993882;28;20036;-61
2022/12/21 09:47:53;;;;;;;48.40;22.27;;;;;;;6.27;100.00;100886.09;4992623;28;20077;-62
2022/12/21 09:50:27;;;;;;;42.58;20.58;;;;;;;5.87;100.00;100796.06;4993732;28;20038;-61
2022/12/21 09:52:58;;;;;;;45.75;20.13;;;;;;;6.32;100.00;100879.06;4992483;28;20026;-61
2022/12/21 09:55:27;;;;;;;46.63;20.48;;;;;;;6.26;100.00;100847.78;4993739;28;20030;-61
2022/12/21 09:57:53;;;;;;;36.85;19.38;;;;;;;6.45;100.00;100879.75;4992400;28;20441;-60
2022/12/21 10:00:21;;;;;;;47.22;20.85;;;;;;;6.29;100.00;100837.28;4992111;28;20477;-60
2022/12/21 10:03:25;;;;;;;43.67;21.60;;;;;;;6.64;100.00;100874.19;4985522;28;20034;-60
2022/12/21 10:06:22;;;;;;;55.05;23.48;;;;;;;6.75;100.00;100869.66;5012902;28;20120;-59
2022/12/21 10:08:57;;;;;;;51.03;25.48;;;;;;;6.79;100.00;100853.03;5011886;28;20143;-61
2022/12/21 10:11:59;;;;;;;59.95;29.00;;;;;;;6.77;100.00;100833.84;5013454;28;20029;-61
2022/12/21 10:14:29;;;;;;;60.75;30.88;;;;;;;6.64;100.00;100807.94;4995853;28;20381;-61
2022/12/21 10:17:21;;;;;;;63.42;33.47;;;;;;;7.03;100.00;100877.06;4996597;28;20183;-61
2022/12/21 10:19:46;;;;;;;;;;;;;;;7.01;100.00;100878.81;5003321;28;20102;-61
2022/12/21 10:22:28;;;;;;;72.43;37.13;;;;;;;7.05;100.00;100898.81;5012463;28;20416;-62
2022/12/21 10:24:56;;;;;;;74.72;39.00;;;;;;;6.61;100.00;100808.00;5010448;28;20057;-60
2022/12/21 10:27:31;;;;;;;70.03;37.92;;;;;;;7.00;100.00;100871.88;5012538;28;20030;-60
2022/12/21 10:29:57;;;;;;;74.80;38.13;;;;;;;7.14;100.00;100889.06;5020023;28;20038;-61
2022/12/21 10:32:46;;;;;;;77.75;38.70;;;;;;;7.29;100.00;100885.31;5011303;28;20053;-60
2022/12/21 10:35:24;;;;;;;65.65;38.33;;;;;;;6.98;100.00;100837.88;5011357;28;20030;-60
2022/12/21 10:37:52;;;;;;;74.20;41.40;;;;;;;7.38;100.00;100885.97;5011354;28;20520;-60
2022/12/21 10:40:19;;;;;;;78.50;40.83;;;;;;;7.06;100.00;100815.06;5011791;28;20488;-60
2022/12/21 10:42:45;;;;;;;75.38;40.65;;;;;;;6.99;100.00;100789.88;5012951;28;20037;-60
2022/12/21 10:45:15;;;;;;;66.07;39.35;;;;;;;7.50;100.00;100882.25;4995533;28;20116;-61
2022/12/21 10:47:44;;;;;;;67.88;38.42;;;;;;;7.46;100.00;100851.81;4994076;28;20037;-61
2022/12/21 10:50:16;;;;;;;63.72;36.58;;;;;;;7.70;100.00;100882.78;5010228;28;20034;-61
2022/12/21 10:52:50;;;;;;;73.05;38.67;;;;;;;7.84;100.00;100866.75;4994682;28;20034;-61
2022/12/21 10:55:18;;;;;;;63.42;37.13;;;;;;;7.87;100.00;100866.69;5012268;28;20587;-61
2022/12/21 10:57:49;;;;;;;58.88;36.53;;;;;;;7.93;100.00;100862.19;5015446;28;20038;-60
2022/12/21 11:00:35;;;;;;;;;;;;;;;7.88;100.00;100858.78;4997462;28;20374;-60
2022/12/21 11:03:04;;;;;;;64.63;35.63;;;;;;;7.72;100.00;100859.16;5012056;28;20343;-62
2022/12/21 11:05:35;;;;;;;67.70;35.45;;;;;;;7.67;100.00;100856.63;5011969;28;20034;-62
2022/12/21 11:08:13;;;;;;;58.45;36.17;;;;;;;7.70;100.00;100850.47;5012254;28;20040;-61
2022/12/21 11:10:41;;;;;;;62.13;35.92;;;;;;;7.32;100.00;100799.72;5011910;28;20029;-60
2022/12/21 11:13:07;;;;;;;64.57;35.38;;;;;;;7.13;100.00;100787.00;5010349;28;20026;-62
2022/12/21 11:15:32;;;;;;;66.07;37.10;;;;;;;7.50;100.00;100863.94;5010416;28;20092;-61
2022/12/21 11:17:58;;;;;;;73.05;37.03;;;;;;;7.48;100.00;100851.75;4986799;28;20038;-61
2022/12/21 11:20:24;;;;;;;67.60;35.92;;;;;;;7.40;100.00;100840.59;4999004;28;20038;-60
2022/12/21 11:22:51;;;;;;;63.47;35.53;;;;;;;6.95;100.00;100777.72;5002201;28;20076;-61
2022/12/21 11:25:25;;;;;;;63.65;34.60;;;;;;;7.27;100.00;100851.28;5001290;28;20042;-60
2022/12/21 11:27:59;;;;;;;57.90;34.47;;;;;;;7.28;100.00;100855.63;4996579;28;20026;-60
2022/12/21 11:30:26;;;;;;;56.60;32.97;;;;;;;7.01;100.00;100788.09;4990916;28;20037;-61
2022/12/21 11:32:54;;;;;;;64.05;34.10;;;;;;;6.87;100.00;100792.72;4999178;28;20026;-61
2022/12/21 11:35:21;;;;;;;53.92;32.17;;;;;;;6.95;100.00;100772.50;5000206;28;20053;-60
2022/12/21 11:37:56;;;;;;;57.95;30.50;;;;;;;6.94;100.00;100775.16;5006336;28;20033;-60